sensor_id;sensor_type;location;lat;lon;timestamp;temperature;humidity
32698;DHT22;19087;51.062;3.754;2024-02-26T00:00:40;8.70;99.90
32698;DHT22;19087;51.062;3.754;2024-02-26T00:03:06;8.60;99.90
32698;DHT22;19087;51.062;3.754;2024-02-26T00:05:33;8.60;99.90
32698;DHT22;19087;51.062;3.754;2024-02-26T00:07:59;8.80;99.90
32698;DHT22;19087;51.062;3.754;2024-02-26T00:10:25;8.80;99.90
32698;DHT22;19087;51.062;3.754;2024-02-26T00:12:54;8.70;99.90
32698;DHT22;19087;51.062;3.754;2024-02-26T00:15:20;8.70;99.90
32698;DHT22;19087;51.062;3.754;2024-02-26T00:17:46;8.60;99.90
32698;DHT22;19087;51.062;3.754;2024-02-26T00:20:16;8.60;99.90
32698;DHT22;19087;51.062;3.754;2024-02-26T00:22:45;8.50;99.90
32698;DHT22;19087;51.062;3.754;2024-02-26T00:25:11;8.50;99.90
32698;DHT22;19087;51.062;3.754;2024-02-26T00:27:38;8.60;99.90
32698;DHT22;19087;51.062;3.754;2024-02-26T00:30:06;8.60;99.90
32698;DHT22;19087;51.062;3.754;2024-02-26T00:32:32;8.70;99.90
32698;DHT22;19087;51.062;3.754;2024-02-26T00:35:01;8.40;99.90
32698;DHT22;19087;51.062;3.754;2024-02-26T00:37:27;8.40;99.90
32698;DHT22;19087;51.062;3.754;2024-02-26T00:39:52;8.50;99.90
32698;DHT22;19087;51.062;3.754;2024-02-26T00:42:19;8.50;99.90
32698;DHT22;19087;51.062;3.754;2024-02-26T00:44:45;8.40;99.90
32698;DHT22;19087;51.062;3.754;2024-02-26T00:47:12;8.40;99.90
32698;DHT22;19087;51.062;3.754;2024-02-26T00:49:37;8.30;99.90
32698;DHT22;19087;51.062;3.754;2024-02-26T00:52:04;8.20;99.90
32698;DHT22;19087;51.062;3.754;2024-02-26T00:54:32;8.30;99.90
32698;DHT22;19087;51.062;3.754;2024-02-26T00:57:00;8.20;99.90
32698;DHT22;19087;51.062;3.754;2024-02-26T00:59:27;8.40;99.90
32698;DHT22;19087;51.062;3.754;2024-02-26T01:01:53;8.50;99.90
32698;DHT22;19087;51.062;3.754;2024-02-26T01:04:20;8.50;99.90
32698;DHT22;19087;51.062;3.754;2024-02-26T01:06:45;8.50;99.90
32698;DHT22;19087;51.062;3.754;2024-02-26T01:09:11;8.30;99.90
32698;DHT22;19087;51.062;3.754;2024-02-26T01:11:37;8.40;99.90
32698;DHT22;19087;51.062;3.754;2024-02-26T01:14:10;8.20;99.90
32698;DHT22;19087;51.062;3.754;2024-02-26T01:16:36;8.20;99.90
32698;DHT22;19087;51.062;3.754;2024-02-26T01:19:01;8.30;99.90
32698;DHT22;19087;51.062;3.754;2024-02-26T01:21:28;8.30;99.90
32698;DHT22;19087;51.062;3.754;2024-02-26T01:23:58;8.30;99.90
32698;DHT22;19087;51.062;3.754;2024-02-26T01:26:24;8.10;99.90
32698;DHT22;19087;51.062;3.754;2024-02-26T01:28:49;8.00;99.90
32698;DHT22;19087;51.062;3.754;2024-02-26T01:31:17;8.10;99.90
32698;DHT22;19087;51.062;3.754;2024-02-26T01:33:43;8.00;99.90
32698;DHT22;19087;51.062;3.754;2024-02-26T01:36:09;8.10;99.90
32698;DHT22;19087;51.062;3.754;2024-02-26T01:38:34;8.20;99.90
32698;DHT22;19087;51.062;3.754;2024-02-26T01:41:00;8.10;99.90
32698;DHT22;19087;51.062;3.754;2024-02-26T01:43:32;8.10;99.90
32698;DHT22;19087;51.062;3.754;2024-02-26T01:46:01;8.20;99.90
32698;DHT22;19087;51.062;3.754;2024-02-26T01:48:28;8.10;99.90
32698;DHT22;19087;51.062;3.754;2024-02-26T01:50:54;8.20;99.90
32698;DHT22;19087;51.062;3.754;2024-02-26T01:53:20;8.20;99.90
32698;DHT22;19087;51.062;3.754;2024-02-26T01:55:47;8.10;99.90
32698;DHT22;19087;51.062;3.754;2024-02-26T01:58:14;8.20;99.90
32698;DHT22;19087;51.062;3.754;2024-02-26T02:00:40;8.20;99.90
32698;DHT22;19087;51.062;3.754;2024-02-26T02:03:08;8.00;99.90
32698;DHT22;19087;51.062;3.754;2024-02-26T02:05:37;8.00;99.90
32698;DHT22;19087;51.062;3.754;2024-02-26T02:08:10;7.90;99.90
32698;DHT22;19087;51.062;3.754;2024-02-26T02:10:41;8.00;99.90
32698;DHT22;19087;51.062;3.754;2024-02-26T02:13:08;8.00;99.90
32698;DHT22;19087;51.062;3.754;2024-02-26T02:15:34;7.90;99.90
32698;DHT22;19087;51.062;3.754;2024-02-26T02:18:01;8.00;99.90
32698;DHT22;19087;51.062;3.754;2024-02-26T02:20:35;8.00;99.90
32698;DHT22;19087;51.062;3.754;2024-02-26T02:23:01;7.90;99.90
32698;DHT22;19087;51.062;3.754;2024-02-26T02:25:27;7.90;99.90
32698;DHT22;19087;51.062;3.754;2024-02-26T02:27:58;7.70;99.90
32698;DHT22;19087;51.062;3.754;2024-02-26T02:30:26;7.80;99.90
32698;DHT22;19087;51.062;3.754;2024-02-26T02:32:55;7.90;99.90
32698;DHT22;19087;51.062;3.754;2024-02-26T02:35:22;7.90;99.90
32698;DHT22;19087;51.062;3.754;2024-02-26T02:37:50;8.00;99.90
32698;DHT22;19087;51.062;3.754;2024-02-26T02:40:17;8.00;99.90
32698;DHT22;19087;51.062;3.754;2024-02-26T02:42:43;8.00;99.90
32698;DHT22;19087;51.062;3.754;2024-02-26T02:45:10;7.70;99.90
32698;DHT22;19087;51.062;3.754;2024-02-26T02:47:37;7.70;99.90
32698;DHT22;19087;51.062;3.754;2024-02-26T02:50:08;7.70;99.90
32698;DHT22;19087;51.062;3.754;2024-02-26T02:52:34;7.70;99.90
32698;DHT22;19087;51.062;3.754;2024-02-26T02:55:01;7.80;99.90
32698;DHT22;19087;51.062;3.754;2024-02-26T02:57:26;7.80;99.90
32698;DHT22;19087;51.062;3.754;2024-02-26T02:59:53;7.70;99.90
32698;DHT22;19087;51.062;3.754;2024-02-26T03:02:19;7.80;99.90
32698;DHT22;19087;51.062;3.754;2024-02-26T03:04:46;7.70;99.90
32698;DHT22;19087;51.062;3.754;2024-02-26T03:07:12;7.70;99.90
32698;DHT22;19087;51.062;3.754;2024-02-26T03:09:38;7.60;99.90
32698;DHT22;19087;51.062;3.754;2024-02-26T03:12:04;7.60;99.90
32698;DHT22;19087;51.062;3.754;2024-02-26T03:14:30;7.60;99.90
32698;DHT22;19087;51.062;3.754;2024-02-26T03:16:56;7.60;99.90
32698;DHT22;19087;51.062;3.754;2024-02-26T03:19:21;7.50;99.90
32698;DHT22;19087;51.062;3.754;2024-02-26T03:21:47;7.50;99.90
32698;DHT22;19087;51.062;3.754;2024-02-26T03:24:14;7.60;99.90
32698;DHT22;19087;51.062;3.754;2024-02-26T03:26:41;7.50;99.90
32698;DHT22;19087;51.062;3.754;2024-02-26T03:29:06;7.50;99.90
32698;DHT22;19087;51.062;3.754;2024-02-26T03:31:32;7.50;99.90
32698;DHT22;19087;51.062;3.754;2024-02-26T03:33:58;7.50;99.90
32698;DHT22;19087;51.062;3.754;2024-02-26T03:36:23;7.50;99.90
32698;DHT22;19087;51.062;3.754;2024-02-26T03:38:49;7.40;99.90
32698;DHT22;19087;51.062;3.754;2024-02-26T03:41:17;7.40;99.90
32698;DHT22;19087;51.062;3.754;2024-02-26T03:43:42;7.20;99.90
32698;DHT22;19087;51.062;3.754;2024-02-26T03:46:08;7.30;99.90
32698;DHT22;19087;51.062;3.754;2024-02-26T03:48:42;7.30;99.90
32698;DHT22;19087;51.062;3.754;2024-02-26T03:51:09;7.30;99.90
32698;DHT22;19087;51.062;3.754;2024-02-26T03:53:36;7.30;99.90
32698;DHT22;19087;51.062;3.754;2024-02-26T03:56:05;7.20;99.90
32698;DHT22;19087;51.062;3.754;2024-02-26T03:58:32;7.30;99.90
32698;DHT22;19087;51.062;3.754;2024-02-26T04:00:58;7.10;99.90
32698;DHT22;19087;51.062;3.754;2024-02-26T04:03:27;7.10;99.90
32698;DHT22;19087;51.062;3.754;2024-02-26T04:05:53;7.10;99.90
32698;DHT22;19087;51.062;3.754;2024-02-26T04:08:20;7.10;99.90
32698;DHT22;19087;51.062;3.754;2024-02-26T04:10:45;7.10;99.90
32698;DHT22;19087;51.062;3.754;2024-02-26T04:13:12;7.10;99.90
32698;DHT22;19087;51.062;3.754;2024-02-26T04:15:39;7.30;99.90
32698;DHT22;19087;51.062;3.754;2024-02-26T04:18:05;7.20;99.90
32698;DHT22;19087;51.062;3.754;2024-02-26T04:20:30;7.20;99.90
32698;DHT22;19087;51.062;3.754;2024-02-26T04:22:57;7.30;99.90
32698;DHT22;19087;51.062;3.754;2024-02-26T04:25:23;7.20;99.90
32698;DHT22;19087;51.062;3.754;2024-02-26T04:27:50;7.20;99.90
32698;DHT22;19087;51.062;3.754;2024-02-26T04:30:15;7.20;99.90
32698;DHT22;19087;51.062;3.754;2024-02-26T04:32:42;7.00;99.90
32698;DHT22;19087;51.062;3.754;2024-02-26T04:35:09;6.80;99.90
32698;DHT22;19087;51.062;3.754;2024-02-26T04:37:34;6.80;99.90
32698;DHT22;19087;51.062;3.754;2024-02-26T04:40:00;7.00;99.90
32698;DHT22;19087;51.062;3.754;2024-02-26T04:42:27;7.10;99.90
32698;DHT22;19087;51.062;3.754;2024-02-26T04:44:54;7.10;99.90
32698;DHT22;19087;51.062;3.754;2024-02-26T04:47:19;7.00;99.90
32698;DHT22;19087;51.062;3.754;2024-02-26T04:49:48;7.00;99.90
32698;DHT22;19087;51.062;3.754;2024-02-26T04:52:15;7.10;99.90
32698;DHT22;19087;51.062;3.754;2024-02-26T04:54:41;7.10;99.90
32698;DHT22;19087;51.062;3.754;2024-02-26T04:57:06;7.10;99.90
32698;DHT22;19087;51.062;3.754;2024-02-26T04:59:32;7.10;99.90
32698;DHT22;19087;51.062;3.754;2024-02-26T05:01:58;7.20;99.90
32698;DHT22;19087;51.062;3.754;2024-02-26T05:04:23;7.20;99.90
32698;DHT22;19087;51.062;3.754;2024-02-26T05:06:49;7.30;99.90
32698;DHT22;19087;51.062;3.754;2024-02-26T05:09:15;7.30;99.90
32698;DHT22;19087;51.062;3.754;2024-02-26T05:11:40;7.30;99.90
32698;DHT22;19087;51.062;3.754;2024-02-26T05:14:06;7.20;99.90
32698;DHT22;19087;51.062;3.754;2024-02-26T05:16:32;7.20;99.90
32698;DHT22;19087;51.062;3.754;2024-02-26T05:18:57;7.20;99.90
32698;DHT22;19087;51.062;3.754;2024-02-26T05:21:24;7.10;99.90
32698;DHT22;19087;51.062;3.754;2024-02-26T05:23:50;7.10;99.90
32698;DHT22;19087;51.062;3.754;2024-02-26T05:26:20;7.30;99.90
32698;DHT22;19087;51.062;3.754;2024-02-26T05:28:47;7.20;99.90
32698;DHT22;19087;51.062;3.754;2024-02-26T05:31:15;7.20;99.90
32698;DHT22;19087;51.062;3.754;2024-02-26T05:33:40;7.30;99.90
32698;DHT22;19087;51.062;3.754;2024-02-26T05:36:06;7.30;99.90
32698;DHT22;19087;51.062;3.754;2024-02-26T05:38:32;7.20;99.90
32698;DHT22;19087;51.062;3.754;2024-02-26T05:40:58;7.20;99.90
32698;DHT22;19087;51.062;3.754;2024-02-26T05:43:25;7.10;99.90
32698;DHT22;19087;51.062;3.754;2024-02-26T05:45:52;7.10;99.90
32698;DHT22;19087;51.062;3.754;2024-02-26T05:48:18;7.10;99.90
32698;DHT22;19087;51.062;3.754;2024-02-26T05:50:48;7.10;99.90
32698;DHT22;19087;51.062;3.754;2024-02-26T05:53:15;7.00;99.90
32698;DHT22;19087;51.062;3.754;2024-02-26T05:55:41;7.00;99.90
32698;DHT22;19087;51.062;3.754;2024-02-26T05:58:07;7.00;99.90
32698;DHT22;19087;51.062;3.754;2024-02-26T06:00:32;7.10;99.90
32698;DHT22;19087;51.062;3.754;2024-02-26T06:02:58;7.10;99.90
32698;DHT22;19087;51.062;3.754;2024-02-26T06:05:25;7.00;99.90
32698;DHT22;19087;51.062;3.754;2024-02-26T06:07:52;7.10;99.90
32698;DHT22;19087;51.062;3.754;2024-02-26T06:10:18;7.00;99.90
32698;DHT22;19087;51.062;3.754;2024-02-26T06:12:47;7.00;99.90
32698;DHT22;19087;51.062;3.754;2024-02-26T06:15:12;7.10;99.90
32698;DHT22;19087;51.062;3.754;2024-02-26T06:17:38;7.10;99.90
32698;DHT22;19087;51.062;3.754;2024-02-26T06:20:04;6.90;99.90
32698;DHT22;19087;51.062;3.754;2024-02-26T06:22:32;6.90;99.90
32698;DHT22;19087;51.062;3.754;2024-02-26T06:24:59;6.80;99.90
32698;DHT22;19087;51.062;3.754;2024-02-26T06:27:25;6.80;99.90
32698;DHT22;19087;51.062;3.754;2024-02-26T06:29:50;6.80;99.90
32698;DHT22;19087;51.062;3.754;2024-02-26T06:32:18;6.90;99.90
32698;DHT22;19087;51.062;3.754;2024-02-26T06:34:43;7.10;99.90
32698;DHT22;19087;51.062;3.754;2024-02-26T06:37:09;7.00;99.90
32698;DHT22;19087;51.062;3.754;2024-02-26T06:39:35;6.90;99.90
32698;DHT22;19087;51.062;3.754;2024-02-26T06:42:02;6.90;99.90
32698;DHT22;19087;51.062;3.754;2024-02-26T06:44:28;6.90;99.90
32698;DHT22;19087;51.062;3.754;2024-02-26T06:47:00;6.90;99.90
32698;DHT22;19087;51.062;3.754;2024-02-26T06:49:29;6.90;99.90
32698;DHT22;19087;51.062;3.754;2024-02-26T06:51:55;7.00;99.90
32698;DHT22;19087;51.062;3.754;2024-02-26T06:54:21;6.80;99.90
32698;DHT22;19087;51.062;3.754;2024-02-26T06:56:53;6.80;99.90
32698;DHT22;19087;51.062;3.754;2024-02-26T06:59:18;7.00;99.90
32698;DHT22;19087;51.062;3.754;2024-02-26T07:01:47;6.90;99.90
32698;DHT22;19087;51.062;3.754;2024-02-26T07:04:13;6.80;99.90
32698;DHT22;19087;51.062;3.754;2024-02-26T07:06:40;6.80;99.90
32698;DHT22;19087;51.062;3.754;2024-02-26T07:09:09;6.70;99.90
32698;DHT22;19087;51.062;3.754;2024-02-26T07:11:40;6.80;99.90
32698;DHT22;19087;51.062;3.754;2024-02-26T07:14:11;6.70;99.90
32698;DHT22;19087;51.062;3.754;2024-02-26T07:16:44;6.70;99.90
32698;DHT22;19087;51.062;3.754;2024-02-26T07:19:10;6.80;99.90
32698;DHT22;19087;51.062;3.754;2024-02-26T07:21:35;6.90;99.90
32698;DHT22;19087;51.062;3.754;2024-02-26T07:24:02;6.90;99.90
32698;DHT22;19087;51.062;3.754;2024-02-26T07:26:27;7.00;99.90
32698;DHT22;19087;51.062;3.754;2024-02-26T07:28:56;6.90;99.90
32698;DHT22;19087;51.062;3.754;2024-02-26T07:31:22;6.80;99.90
32698;DHT22;19087;51.062;3.754;2024-02-26T07:33:47;6.90;99.90
32698;DHT22;19087;51.062;3.754;2024-02-26T07:36:14;6.90;99.90
32698;DHT22;19087;51.062;3.754;2024-02-26T07:38:41;6.90;99.90
32698;DHT22;19087;51.062;3.754;2024-02-26T07:41:06;6.90;99.90
32698;DHT22;19087;51.062;3.754;2024-02-26T07:43:32;7.00;99.90
32698;DHT22;19087;51.062;3.754;2024-02-26T07:45:57;7.00;99.90
32698;DHT22;19087;51.062;3.754;2024-02-26T07:48:23;6.90;99.90
32698;DHT22;19087;51.062;3.754;2024-02-26T07:50:49;6.90;99.90
32698;DHT22;19087;51.062;3.754;2024-02-26T07:53:15;6.90;99.90
32698;DHT22;19087;51.062;3.754;2024-02-26T07:55:43;7.00;99.90
32698;DHT22;19087;51.062;3.754;2024-02-26T07:58:08;6.90;99.90
32698;DHT22;19087;51.062;3.754;2024-02-26T08:00:40;6.80;99.90
32698;DHT22;19087;51.062;3.754;2024-02-26T08:03:05;6.80;99.90
32698;DHT22;19087;51.062;3.754;2024-02-26T08:05:32;6.90;99.90
32698;DHT22;19087;51.062;3.754;2024-02-26T08:07:58;6.80;99.90
32698;DHT22;19087;51.062;3.754;2024-02-26T08:10:23;6.80;99.90
32698;DHT22;19087;51.062;3.754;2024-02-26T08:12:49;6.80;99.90
32698;DHT22;19087;51.062;3.754;2024-02-26T08:15:15;6.70;99.90
32698;DHT22;19087;51.062;3.754;2024-02-26T08:17:41;6.80;99.90
32698;DHT22;19087;51.062;3.754;2024-02-26T08:20:07;6.80;99.90
32698;DHT22;19087;51.062;3.754;2024-02-26T08:22:33;6.80;99.90
32698;DHT22;19087;51.062;3.754;2024-02-26T08:24:59;6.80;99.90
32698;DHT22;19087;51.062;3.754;2024-02-26T08:27:25;6.90;99.90
32698;DHT22;19087;51.062;3.754;2024-02-26T08:29:51;6.80;99.90
32698;DHT22;19087;51.062;3.754;2024-02-26T08:32:17;6.80;99.90
32698;DHT22;19087;51.062;3.754;2024-02-26T08:34:46;6.90;99.90
32698;DHT22;19087;51.062;3.754;2024-02-26T08:37:14;6.80;99.90
32698;DHT22;19087;51.062;3.754;2024-02-26T08:39:40;6.80;99.90
32698;DHT22;19087;51.062;3.754;2024-02-26T08:42:06;6.90;99.90
32698;DHT22;19087;51.062;3.754;2024-02-26T08:44:31;6.80;99.90
32698;DHT22;19087;51.062;3.754;2024-02-26T08:46:58;6.80;99.90
32698;DHT22;19087;51.062;3.754;2024-02-26T08:49:25;6.80;99.90
32698;DHT22;19087;51.062;3.754;2024-02-26T08:51:51;6.80;99.90
32698;DHT22;19087;51.062;3.754;2024-02-26T08:54:17;6.80;99.90
32698;DHT22;19087;51.062;3.754;2024-02-26T08:56:43;6.80;99.90
32698;DHT22;19087;51.062;3.754;2024-02-26T08:59:09;7.00;99.90
32698;DHT22;19087;51.062;3.754;2024-02-26T09:01:34;7.00;99.90
32698;DHT22;19087;51.062;3.754;2024-02-26T09:04:00;7.00;99.90
32698;DHT22;19087;51.062;3.754;2024-02-26T09:06:26;7.00;99.90
32698;DHT22;19087;51.062;3.754;2024-02-26T09:08:52;7.00;99.90
32698;DHT22;19087;51.062;3.754;2024-02-26T09:11:17;6.90;99.90
32698;DHT22;19087;51.062;3.754;2024-02-26T09:13:43;6.90;99.90
32698;DHT22;19087;51.062;3.754;2024-02-26T09:16:09;7.00;99.90
32698;DHT22;19087;51.062;3.754;2024-02-26T09:18:34;7.00;99.90
32698;DHT22;19087;51.062;3.754;2024-02-26T09:21:04;6.90;99.90
32698;DHT22;19087;51.062;3.754;2024-02-26T09:23:33;6.80;99.90
32698;DHT22;19087;51.062;3.754;2024-02-26T09:26:00;6.90;99.90
32698;DHT22;19087;51.062;3.754;2024-02-26T09:28:26;6.80;99.90
32698;DHT22;19087;51.062;3.754;2024-02-26T09:30:51;6.80;99.90
32698;DHT22;19087;51.062;3.754;2024-02-26T09:33:19;6.80;99.90
32698;DHT22;19087;51.062;3.754;2024-02-26T09:35:45;6.90;99.90
32698;DHT22;19087;51.062;3.754;2024-02-26T09:38:10;6.90;99.90
32698;DHT22;19087;51.062;3.754;2024-02-26T09:40:37;6.90;99.90
32698;DHT22;19087;51.062;3.754;2024-02-26T09:43:05;6.90;99.90
32698;DHT22;19087;51.062;3.754;2024-02-26T09:45:33;6.90;99.90
32698;DHT22;19087;51.062;3.754;2024-02-26T09:47:58;6.90;99.90
32698;DHT22;19087;51.062;3.754;2024-02-26T09:50:26;6.70;99.90
32698;DHT22;19087;51.062;3.754;2024-02-26T09:52:54;6.70;99.90
32698;DHT22;19087;51.062;3.754;2024-02-26T09:55:22;6.70;99.90
32698;DHT22;19087;51.062;3.754;2024-02-26T09:57:48;6.70;99.90
32698;DHT22;19087;51.062;3.754;2024-02-26T10:00:21;6.70;99.90
32698;DHT22;19087;51.062;3.754;2024-02-26T10:02:47;6.80;99.90
32698;DHT22;19087;51.062;3.754;2024-02-26T10:05:17;6.80;99.90
32698;DHT22;19087;51.062;3.754;2024-02-26T10:07:44;6.90;99.90
32698;DHT22;19087;51.062;3.754;2024-02-26T10:10:10;6.90;99.90
32698;DHT22;19087;51.062;3.754;2024-02-26T10:12:36;6.90;99.90
32698;DHT22;19087;51.062;3.754;2024-02-26T10:15:03;7.00;99.90
32698;DHT22;19087;51.062;3.754;2024-02-26T10:17:33;6.90;99.90
32698;DHT22;19087;51.062;3.754;2024-02-26T10:20:19;6.90;99.90
32698;DHT22;19087;51.062;3.754;2024-02-26T10:22:52;6.90;99.90
32698;DHT22;19087;51.062;3.754;2024-02-26T10:25:18;6.90;99.90
32698;DHT22;19087;51.062;3.754;2024-02-26T10:27:45;6.80;99.90
32698;DHT22;19087;51.062;3.754;2024-02-26T10:30:22;6.80;99.90
32698;DHT22;19087;51.062;3.754;2024-02-26T10:32:49;6.80;99.90
32698;DHT22;19087;51.062;3.754;2024-02-26T10:35:18;6.80;99.90
32698;DHT22;19087;51.062;3.754;2024-02-26T10:37:51;6.80;99.90
32698;DHT22;19087;51.062;3.754;2024-02-26T10:40:18;6.80;99.90
32698;DHT22;19087;51.062;3.754;2024-02-26T10:42:44;6.80;99.90
32698;DHT22;19087;51.062;3.754;2024-02-26T10:45:13;7.00;99.90
32698;DHT22;19087;51.062;3.754;2024-02-26T10:47:40;7.00;99.90
32698;DHT22;19087;51.062;3.754;2024-02-26T10:50:07;7.00;99.90
32698;DHT22;19087;51.062;3.754;2024-02-26T10:52:34;6.90;99.90
32698;DHT22;19087;51.062;3.754;2024-02-26T10:55:04;6.90;99.90
32698;DHT22;19087;51.062;3.754;2024-02-26T10:57:39;7.00;99.90
32698;DHT22;19087;51.062;3.754;2024-02-26T11:00:06;6.80;99.90
32698;DHT22;19087;51.062;3.754;2024-02-26T11:02:36;6.80;99.90
32698;DHT22;19087;51.062;3.754;2024-02-26T11:05:06;6.80;99.90
32698;DHT22;19087;51.062;3.754;2024-02-26T11:07:34;6.70;99.90
32698;DHT22;19087;51.062;3.754;2024-02-26T11:10:00;6.80;99.90
32698;DHT22;19087;51.062;3.754;2024-02-26T11:12:29;6.80;99.90
32698;DHT22;19087;51.062;3.754;2024-02-26T11:14:57;6.80;99.90
32698;DHT22;19087;51.062;3.754;2024-02-26T11:17:27;6.90;99.90
32698;DHT22;19087;51.062;3.754;2024-02-26T11:19:59;6.90;99.90
32698;DHT22;19087;51.062;3.754;2024-02-26T11:22:26;7.00;99.90
32698;DHT22;19087;51.062;3.754;2024-02-26T11:24:54;6.90;99.90
32698;DHT22;19087;51.062;3.754;2024-02-26T11:27:24;7.00;99.90
32698;DHT22;19087;51.062;3.754;2024-02-26T11:29:52;7.00;99.90
32698;DHT22;19087;51.062;3.754;2024-02-26T11:32:23;6.90;99.90
32698;DHT22;19087;51.062;3.754;2024-02-26T11:34:50;6.90;99.90
32698;DHT22;19087;51.062;3.754;2024-02-26T11:37:17;6.90;99.90
32698;DHT22;19087;51.062;3.754;2024-02-26T11:39:44;6.90;99.90
32698;DHT22;19087;51.062;3.754;2024-02-26T11:42:16;6.90;99.90
32698;DHT22;19087;51.062;3.754;2024-02-26T11:44:44;7.20;99.90
32698;DHT22;19087;51.062;3.754;2024-02-26T11:47:23;6.90;99.90
32698;DHT22;19087;51.062;3.754;2024-02-26T11:49:52;6.90;99.90
32698;DHT22;19087;51.062;3.754;2024-02-26T11:52:17;6.90;99.90
32698;DHT22;19087;51.062;3.754;2024-02-26T11:54:53;7.00;99.90
32698;DHT22;19087;51.062;3.754;2024-02-26T11:59:50;7.00;99.90
32698;DHT22;19087;51.062;3.754;2024-02-26T12:05:22;7.20;99.90
32698;DHT22;19087;51.062;3.754;2024-02-26T12:08:03;7.10;99.90
32698;DHT22;19087;51.062;3.754;2024-02-26T12:10:39;7.00;99.90
32698;DHT22;19087;51.062;3.754;2024-02-26T12:13:11;7.00;99.90
32698;DHT22;19087;51.062;3.754;2024-02-26T12:15:45;7.00;99.90
32698;DHT22;19087;51.062;3.754;2024-02-26T12:18:22;7.10;99.90
32698;DHT22;19087;51.062;3.754;2024-02-26T12:21:04;6.90;99.90
32698;DHT22;19087;51.062;3.754;2024-02-26T12:23:30;7.10;99.90
32698;DHT22;19087;51.062;3.754;2024-02-26T12:26:00;7.10;99.90
32698;DHT22;19087;51.062;3.754;2024-02-26T12:28:30;7.10;99.90
32698;DHT22;19087;51.062;3.754;2024-02-26T12:30:56;7.10;99.90
32698;DHT22;19087;51.062;3.754;2024-02-26T12:33:25;7.10;99.90
32698;DHT22;19087;51.062;3.754;2024-02-26T12:35:52;7.10;99.90
32698;DHT22;19087;51.062;3.754;2024-02-26T12:38:19;7.00;99.90
32698;DHT22;19087;51.062;3.754;2024-02-26T12:40:45;7.00;99.90
32698;DHT22;19087;51.062;3.754;2024-02-26T12:43:11;6.90;99.90
32698;DHT22;19087;51.062;3.754;2024-02-26T12:45:47;6.90;99.90
32698;DHT22;19087;51.062;3.754;2024-02-26T12:48:13;7.00;99.90
32698;DHT22;19087;51.062;3.754;2024-02-26T12:50:39;7.10;99.90
32698;DHT22;19087;51.062;3.754;2024-02-26T12:53:06;7.10;99.90
32698;DHT22;19087;51.062;3.754;2024-02-26T12:55:33;7.10;99.90
32698;DHT22;19087;51.062;3.754;2024-02-26T12:58:00;7.20;99.90
32698;DHT22;19087;51.062;3.754;2024-02-26T13:00:27;7.20;99.90
32698;DHT22;19087;51.062;3.754;2024-02-26T13:02:56;7.20;99.90
32698;DHT22;19087;51.062;3.754;2024-02-26T13:05:25;7.20;99.90
32698;DHT22;19087;51.062;3.754;2024-02-26T13:07:52;7.20;99.90
32698;DHT22;19087;51.062;3.754;2024-02-26T13:10:18;7.10;99.90
32698;DHT22;19087;51.062;3.754;2024-02-26T13:12:46;7.10;99.90
32698;DHT22;19087;51.062;3.754;2024-02-26T13:15:22;7.10;99.90
32698;DHT22;19087;51.062;3.754;2024-02-26T13:17:49;7.00;99.90
32698;DHT22;19087;51.062;3.754;2024-02-26T13:20:29;6.90;99.90
32698;DHT22;19087;51.062;3.754;2024-02-26T13:23:05;6.90;99.90
32698;DHT22;19087;51.062;3.754;2024-02-26T13:25:34;7.10;99.90
32698;DHT22;19087;51.062;3.754;2024-02-26T13:28:08;7.10;99.90
32698;DHT22;19087;51.062;3.754;2024-02-26T13:30:35;7.10;99.90
32698;DHT22;19087;51.062;3.754;2024-02-26T13:33:28;7.00;99.90
32698;DHT22;19087;51.062;3.754;2024-02-26T13:35:56;7.00;99.90
32698;DHT22;19087;51.062;3.754;2024-02-26T13:38:23;7.00;99.90
32698;DHT22;19087;51.062;3.754;2024-02-26T13:40:50;7.10;99.90
32698;DHT22;19087;51.062;3.754;2024-02-26T13:43:18;7.00;99.90
32698;DHT22;19087;51.062;3.754;2024-02-26T13:45:45;7.10;99.90
32698;DHT22;19087;51.062;3.754;2024-02-26T13:48:13;7.10;99.90
32698;DHT22;19087;51.062;3.754;2024-02-26T13:50:40;7.10;99.90
32698;DHT22;19087;51.062;3.754;2024-02-26T13:53:08;7.10;99.90
32698;DHT22;19087;51.062;3.754;2024-02-26T13:55:34;7.10;99.90
32698;DHT22;19087;51.062;3.754;2024-02-26T13:58:00;7.10;99.90
32698;DHT22;19087;51.062;3.754;2024-02-26T14:00:29;7.20;99.90
32698;DHT22;19087;51.062;3.754;2024-02-26T14:02:57;7.20;99.90
32698;DHT22;19087;51.062;3.754;2024-02-26T14:05:23;7.20;99.90
32698;DHT22;19087;51.062;3.754;2024-02-26T14:07:49;7.10;99.90
32698;DHT22;19087;51.062;3.754;2024-02-26T14:10:14;7.00;99.90
32698;DHT22;19087;51.062;3.754;2024-02-26T14:12:41;7.10;99.90
32698;DHT22;19087;51.062;3.754;2024-02-26T14:15:07;7.10;99.90
32698;DHT22;19087;51.062;3.754;2024-02-26T14:17:36;7.10;99.90
32698;DHT22;19087;51.062;3.754;2024-02-26T14:20:02;7.10;99.90
32698;DHT22;19087;51.062;3.754;2024-02-26T14:22:28;7.20;99.90
32698;DHT22;19087;51.062;3.754;2024-02-26T14:24:56;7.20;99.90
32698;DHT22;19087;51.062;3.754;2024-02-26T14:27:22;7.20;99.90
32698;DHT22;19087;51.062;3.754;2024-02-26T14:29:48;7.20;99.90
32698;DHT22;19087;51.062;3.754;2024-02-26T14:32:14;7.30;99.90
32698;DHT22;19087;51.062;3.754;2024-02-26T14:34:41;7.50;99.90
32698;DHT22;19087;51.062;3.754;2024-02-26T14:37:07;7.40;99.90
32698;DHT22;19087;51.062;3.754;2024-02-26T14:39:34;7.30;99.90
32698;DHT22;19087;51.062;3.754;2024-02-26T14:42:00;7.30;99.90
32698;DHT22;19087;51.062;3.754;2024-02-26T14:44:26;7.20;99.90
32698;DHT22;19087;51.062;3.754;2024-02-26T14:46:52;7.20;99.90
32698;DHT22;19087;51.062;3.754;2024-02-26T14:49:20;7.20;99.90
32698;DHT22;19087;51.062;3.754;2024-02-26T14:51:50;7.30;99.90
32698;DHT22;19087;51.062;3.754;2024-02-26T14:54:15;7.40;99.90
32698;DHT22;19087;51.062;3.754;2024-02-26T14:56:41;7.40;99.90
32698;DHT22;19087;51.062;3.754;2024-02-26T14:59:07;7.30;99.90
32698;DHT22;19087;51.062;3.754;2024-02-26T15:01:33;7.20;99.90
32698;DHT22;19087;51.062;3.754;2024-02-26T15:03:59;7.30;99.90
32698;DHT22;19087;51.062;3.754;2024-02-26T15:06:25;7.30;99.90
32698;DHT22;19087;51.062;3.754;2024-02-26T15:08:52;7.30;99.90
32698;DHT22;19087;51.062;3.754;2024-02-26T15:11:21;7.40;99.90
32698;DHT22;19087;51.062;3.754;2024-02-26T15:13:48;7.40;99.90
32698;DHT22;19087;51.062;3.754;2024-02-26T15:16:21;7.30;99.90
32698;DHT22;19087;51.062;3.754;2024-02-26T15:18:48;7.20;99.90
32698;DHT22;19087;51.062;3.754;2024-02-26T15:21:14;7.20;99.90
32698;DHT22;19087;51.062;3.754;2024-02-26T15:23:44;7.20;99.90
32698;DHT22;19087;51.062;3.754;2024-02-26T15:26:13;7.20;99.90
32698;DHT22;19087;51.062;3.754;2024-02-26T15:28:40;7.40;99.90
32698;DHT22;19087;51.062;3.754;2024-02-26T15:31:06;7.40;99.90
32698;DHT22;19087;51.062;3.754;2024-02-26T15:33:31;7.30;99.90
32698;DHT22;19087;51.062;3.754;2024-02-26T15:36:00;7.30;99.90
32698;DHT22;19087;51.062;3.754;2024-02-26T15:38:26;7.20;99.90
32698;DHT22;19087;51.062;3.754;2024-02-26T15:40:53;7.30;99.90
32698;DHT22;19087;51.062;3.754;2024-02-26T15:43:18;7.20;99.90
32698;DHT22;19087;51.062;3.754;2024-02-26T15:45:47;7.20;99.90
32698;DHT22;19087;51.062;3.754;2024-02-26T15:48:14;7.30;99.90
32698;DHT22;19087;51.062;3.754;2024-02-26T15:50:40;7.40;99.90